sensor_id;sensor_type;location;lat;lon;timestamp;temperature;humidity
16229;DHT22;8222;51.462;12.630;2022-09-09T00:01:46;16.70;99.90
16229;DHT22;8222;51.462;12.630;2022-09-09T00:09:27;16.50;99.90
16229;DHT22;8222;51.462;12.630;2022-09-09T00:12:15;16.50;99.90
16229;DHT22;8222;51.462;12.630;2022-09-09T00:14:45;16.50;99.90
16229;DHT22;8222;51.462;12.630;2022-09-09T00:19:59;16.50;99.90
16229;DHT22;8222;51.462;12.630;2022-09-09T00:22:28;16.50;99.90
16229;DHT22;8222;51.462;12.630;2022-09-09T00:30:19;16.50;99.90
16229;DHT22;8222;51.462;12.630;2022-09-09T00:32:49;16.50;99.90
16229;DHT22;8222;51.462;12.630;2022-09-09T00:38:02;16.50;99.90
16229;DHT22;8222;51.462;12.630;2022-09-09T00:40:34;16.40;99.90
16229;DHT22;8222;51.462;12.630;2022-09-09T00:46:19;16.40;99.90
16229;DHT22;8222;51.462;12.630;2022-09-09T00:54:13;16.40;99.90
16229;DHT22;8222;51.462;12.630;2022-09-09T00:56:52;16.40;99.90
16229;DHT22;8222;51.462;12.630;2022-09-09T01:01:53;16.30;99.90
16229;DHT22;8222;51.462;12.630;2022-09-09T01:04:29;16.10;99.90
16229;DHT22;8222;51.462;12.630;2022-09-09T01:07:08;16.10;99.90
16229;DHT22;8222;51.462;12.630;2022-09-09T01:09:52;16.10;99.90
16229;DHT22;8222;51.462;12.630;2022-09-09T01:15:07;16.10;99.90
16229;DHT22;8222;51.462;12.630;2022-09-09T01:17:49;16.10;99.90
16229;DHT22;8222;51.462;12.630;2022-09-09T01:20:30;16.10;99.90
16229;DHT22;8222;51.462;12.630;2022-09-09T01:23:04;16.10;99.90
16229;DHT22;8222;51.462;12.630;2022-09-09T01:28:30;16.10;99.90
16229;DHT22;8222;51.462;12.630;2022-09-09T01:30:59;16.10;99.90
16229;DHT22;8222;51.462;12.630;2022-09-09T01:33:25;16.00;99.90
16229;DHT22;8222;51.462;12.630;2022-09-09T01:35:59;16.00;99.90
16229;DHT22;8222;51.462;12.630;2022-09-09T01:38:26;15.80;99.90
16229;DHT22;8222;51.462;12.630;2022-09-09T01:40:53;15.90;99.90
16229;DHT22;8222;51.462;12.630;2022-09-09T01:43:22;15.80;99.90
16229;DHT22;8222;51.462;12.630;2022-09-09T01:45:51;15.80;99.90
16229;DHT22;8222;51.462;12.630;2022-09-09T01:48:19;15.60;99.90
16229;DHT22;8222;51.462;12.630;2022-09-09T01:50:48;15.70;99.90
16229;DHT22;8222;51.462;12.630;2022-09-09T01:53:16;15.60;99.90
16229;DHT22;8222;51.462;12.630;2022-09-09T01:56:04;15.60;99.90
16229;DHT22;8222;51.462;12.630;2022-09-09T02:01:15;15.50;99.90
16229;DHT22;8222;51.462;12.630;2022-09-09T02:03:49;15.60;99.90
16229;DHT22;8222;51.462;12.630;2022-09-09T02:09:00;15.60;99.90
16229;DHT22;8222;51.462;12.630;2022-09-09T02:11:28;15.20;99.90
16229;DHT22;8222;51.462;12.630;2022-09-09T02:14:01;15.60;99.90
16229;DHT22;8222;51.462;12.630;2022-09-09T02:16:32;15.50;99.90
16229;DHT22;8222;51.462;12.630;2022-09-09T02:19:20;15.60;99.90
16229;DHT22;8222;51.462;12.630;2022-09-09T02:21:52;15.60;99.90
16229;DHT22;8222;51.462;12.630;2022-09-09T02:24:20;15.70;99.90
16229;DHT22;8222;51.462;12.630;2022-09-09T02:26:49;15.70;99.90
16229;DHT22;8222;51.462;12.630;2022-09-09T02:29:28;15.70;99.90
16229;DHT22;8222;51.462;12.630;2022-09-09T02:31:59;15.60;99.90
16229;DHT22;8222;51.462;12.630;2022-09-09T02:34:29;15.60;99.90
16229;DHT22;8222;51.462;12.630;2022-09-09T02:36:57;15.60;99.90
16229;DHT22;8222;51.462;12.630;2022-09-09T02:39:27;15.60;99.90
16229;DHT22;8222;51.462;12.630;2022-09-09T02:41:53;15.60;99.90
16229;DHT22;8222;51.462;12.630;2022-09-09T02:44:19;15.50;99.90
16229;DHT22;8222;51.462;12.630;2022-09-09T02:52:24;15.50;99.90
16229;DHT22;8222;51.462;12.630;2022-09-09T02:54:56;15.50;99.90
16229;DHT22;8222;51.462;12.630;2022-09-09T02:57:28;15.50;99.90
16229;DHT22;8222;51.462;12.630;2022-09-09T02:59:57;15.60;99.90
16229;DHT22;8222;51.462;12.630;2022-09-09T03:02:25;15.60;99.90
16229;DHT22;8222;51.462;12.630;2022-09-09T03:04:51;15.60;99.90
16229;DHT22;8222;51.462;12.630;2022-09-09T03:07:19;15.60;99.90
16229;DHT22;8222;51.462;12.630;2022-09-09T03:09:45;15.60;99.90
16229;DHT22;8222;51.462;12.630;2022-09-09T03:12:11;15.50;99.90
16229;DHT22;8222;51.462;12.630;2022-09-09T03:14:37;15.60;99.90
16229;DHT22;8222;51.462;12.630;2022-09-09T03:17:04;15.70;99.90
16229;DHT22;8222;51.462;12.630;2022-09-09T03:19:30;15.70;99.90
16229;DHT22;8222;51.462;12.630;2022-09-09T03:21:57;15.80;99.90
16229;DHT22;8222;51.462;12.630;2022-09-09T03:24:23;15.80;99.90
16229;DHT22;8222;51.462;12.630;2022-09-09T03:26:49;15.70;99.90
16229;DHT22;8222;51.462;12.630;2022-09-09T03:29:16;15.70;99.90
16229;DHT22;8222;51.462;12.630;2022-09-09T03:31:43;15.80;99.90
16229;DHT22;8222;51.462;12.630;2022-09-09T03:34:09;15.80;99.90
16229;DHT22;8222;51.462;12.630;2022-09-09T03:36:35;15.90;99.90
16229;DHT22;8222;51.462;12.630;2022-09-09T03:39:03;16.00;99.90
16229;DHT22;8222;51.462;12.630;2022-09-09T03:41:30;16.00;99.90
16229;DHT22;8222;51.462;12.630;2022-09-09T03:43:56;16.10;99.90
16229;DHT22;8222;51.462;12.630;2022-09-09T03:46:23;16.00;99.90
16229;DHT22;8222;51.462;12.630;2022-09-09T03:48:51;16.00;99.90
16229;DHT22;8222;51.462;12.630;2022-09-09T03:51:20;16.00;99.90
16229;DHT22;8222;51.462;12.630;2022-09-09T03:53:48;16.00;99.90
16229;DHT22;8222;51.462;12.630;2022-09-09T03:56:14;15.90;99.90
16229;DHT22;8222;51.462;12.630;2022-09-09T03:58:40;15.80;99.90
16229;DHT22;8222;51.462;12.630;2022-09-09T04:03:36;15.80;99.90
16229;DHT22;8222;51.462;12.630;2022-09-09T04:06:04;15.80;99.90
16229;DHT22;8222;51.462;12.630;2022-09-09T04:08:30;15.80;99.90
16229;DHT22;8222;51.462;12.630;2022-09-09T04:10:59;15.70;99.90
16229;DHT22;8222;51.462;12.630;2022-09-09T04:13:26;15.70;99.90
16229;DHT22;8222;51.462;12.630;2022-09-09T04:15:53;15.80;99.90
16229;DHT22;8222;51.462;12.630;2022-09-09T04:18:21;15.80;99.90
16229;DHT22;8222;51.462;12.630;2022-09-09T04:20:51;15.80;99.90
16229;DHT22;8222;51.462;12.630;2022-09-09T04:23:18;15.90;99.90
16229;DHT22;8222;51.462;12.630;2022-09-09T04:25:47;15.90;99.90
16229;DHT22;8222;51.462;12.630;2022-09-09T04:28:15;15.90;99.90
16229;DHT22;8222;51.462;12.630;2022-09-09T04:30:42;15.90;99.90
16229;DHT22;8222;51.462;12.630;2022-09-09T04:33:09;15.90;99.90
16229;DHT22;8222;51.462;12.630;2022-09-09T04:35:37;16.00;99.90
16229;DHT22;8222;51.462;12.630;2022-09-09T04:38:03;16.10;99.90
16229;DHT22;8222;51.462;12.630;2022-09-09T04:40:30;16.10;99.90
16229;DHT22;8222;51.462;12.630;2022-09-09T04:42:58;16.10;99.90
16229;DHT22;8222;51.462;12.630;2022-09-09T04:45:24;16.10;99.90
16229;DHT22;8222;51.462;12.630;2022-09-09T04:47:50;16.20;99.90
16229;DHT22;8222;51.462;12.630;2022-09-09T04:50:18;16.30;99.90
16229;DHT22;8222;51.462;12.630;2022-09-09T04:52:44;16.30;99.90
16229;DHT22;8222;51.462;12.630;2022-09-09T04:55:10;16.30;99.90
16229;DHT22;8222;51.462;12.630;2022-09-09T04:57:38;16.50;99.90
16229;DHT22;8222;51.462;12.630;2022-09-09T05:00:04;16.60;99.90
16229;DHT22;8222;51.462;12.630;2022-09-09T05:02:30;16.50;99.90
16229;DHT22;8222;51.462;12.630;2022-09-09T05:04:57;16.60;99.90
16229;DHT22;8222;51.462;12.630;2022-09-09T05:07:23;16.70;99.90
16229;DHT22;8222;51.462;12.630;2022-09-09T05:09:49;16.90;99.90
16229;DHT22;8222;51.462;12.630;2022-09-09T05:12:16;16.90;99.90
16229;DHT22;8222;51.462;12.630;2022-09-09T05:14:42;16.90;99.90
16229;DHT22;8222;51.462;12.630;2022-09-09T05:17:09;16.90;99.90
16229;DHT22;8222;51.462;12.630;2022-09-09T05:19:34;17.00;99.90
16229;DHT22;8222;51.462;12.630;2022-09-09T05:22:00;17.10;99.90
16229;DHT22;8222;51.462;12.630;2022-09-09T05:24:26;17.00;99.90
16229;DHT22;8222;51.462;12.630;2022-09-09T05:26:54;17.10;99.90
16229;DHT22;8222;51.462;12.630;2022-09-09T05:29:23;17.10;99.90
16229;DHT22;8222;51.462;12.630;2022-09-09T05:31:50;17.20;99.90
16229;DHT22;8222;51.462;12.630;2022-09-09T05:34:16;17.10;99.90
16229;DHT22;8222;51.462;12.630;2022-09-09T05:36:42;17.20;99.90
16229;DHT22;8222;51.462;12.630;2022-09-09T05:39:07;17.30;99.90
16229;DHT22;8222;51.462;12.630;2022-09-09T05:41:35;17.30;99.90
16229;DHT22;8222;51.462;12.630;2022-09-09T05:44:01;17.50;99.90
16229;DHT22;8222;51.462;12.630;2022-09-09T05:46:27;17.50;99.90
16229;DHT22;8222;51.462;12.630;2022-09-09T05:48:53;17.50;99.90
16229;DHT22;8222;51.462;12.630;2022-09-09T05:51:21;17.60;99.90
16229;DHT22;8222;51.462;12.630;2022-09-09T05:53:48;17.60;99.90
16229;DHT22;8222;51.462;12.630;2022-09-09T05:56:16;17.60;99.90
16229;DHT22;8222;51.462;12.630;2022-09-09T05:58:43;17.70;99.90
16229;DHT22;8222;51.462;12.630;2022-09-09T06:01:15;17.70;99.90
16229;DHT22;8222;51.462;12.630;2022-09-09T06:03:43;17.70;99.90
16229;DHT22;8222;51.462;12.630;2022-09-09T06:06:11;17.90;99.90
16229;DHT22;8222;51.462;12.630;2022-09-09T06:08:39;17.90;99.90
16229;DHT22;8222;51.462;12.630;2022-09-09T06:11:09;18.00;99.90
16229;DHT22;8222;51.462;12.630;2022-09-09T06:13:35;18.00;99.90
16229;DHT22;8222;51.462;12.630;2022-09-09T06:16:05;18.10;99.90
16229;DHT22;8222;51.462;12.630;2022-09-09T06:18:32;18.20;99.90
16229;DHT22;8222;51.462;12.630;2022-09-09T06:21:03;18.30;99.90
16229;DHT22;8222;51.462;12.630;2022-09-09T06:23:33;18.40;99.90
16229;DHT22;8222;51.462;12.630;2022-09-09T06:28:37;18.60;99.90
16229;DHT22;8222;51.462;12.630;2022-09-09T06:31:07;18.70;99.90
16229;DHT22;8222;51.462;12.630;2022-09-09T06:33:39;18.70;99.90
16229;DHT22;8222;51.462;12.630;2022-09-09T06:36:07;18.90;99.90
16229;DHT22;8222;51.462;12.630;2022-09-09T06:38:35;19.00;99.90
16229;DHT22;8222;51.462;12.630;2022-09-09T06:41:01;19.10;99.90
16229;DHT22;8222;51.462;12.630;2022-09-09T06:43:29;19.20;99.90
16229;DHT22;8222;51.462;12.630;2022-09-09T06:45:56;19.40;99.90
16229;DHT22;8222;51.462;12.630;2022-09-09T06:48:22;19.30;99.90
16229;DHT22;8222;51.462;12.630;2022-09-09T06:50:48;19.40;99.90
16229;DHT22;8222;51.462;12.630;2022-09-09T06:53:17;19.40;99.90
16229;DHT22;8222;51.462;12.630;2022-09-09T06:55:45;19.50;99.90
16229;DHT22;8222;51.462;12.630;2022-09-09T06:58:10;19.50;99.90
16229;DHT22;8222;51.462;12.630;2022-09-09T07:00:38;19.60;99.90
16229;DHT22;8222;51.462;12.630;2022-09-09T07:03:04;19.70;99.90
16229;DHT22;8222;51.462;12.630;2022-09-09T07:05:30;19.70;99.90
16229;DHT22;8222;51.462;12.630;2022-09-09T07:07:56;19.80;99.90
16229;DHT22;8222;51.462;12.630;2022-09-09T07:10:21;19.70;99.90
16229;DHT22;8222;51.462;12.630;2022-09-09T07:12:52;19.80;99.90
16229;DHT22;8222;51.462;12.630;2022-09-09T07:15:18;19.90;99.90
16229;DHT22;8222;51.462;12.630;2022-09-09T07:17:44;20.00;99.90
16229;DHT22;8222;51.462;12.630;2022-09-09T07:20:12;20.00;99.90
16229;DHT22;8222;51.462;12.630;2022-09-09T07:22:38;20.10;99.90
16229;DHT22;8222;51.462;12.630;2022-09-09T07:25:04;20.30;99.90
16229;DHT22;8222;51.462;12.630;2022-09-09T07:27:30;20.40;99.90
16229;DHT22;8222;51.462;12.630;2022-09-09T07:29:55;20.60;99.90
16229;DHT22;8222;51.462;12.630;2022-09-09T07:32:21;20.50;99.90
16229;DHT22;8222;51.462;12.630;2022-09-09T07:34:47;20.30;99.90
16229;DHT22;8222;51.462;12.630;2022-09-09T07:37:13;20.40;99.90
16229;DHT22;8222;51.462;12.630;2022-09-09T07:39:39;20.50;99.90
16229;DHT22;8222;51.462;12.630;2022-09-09T07:42:05;20.50;99.90
16229;DHT22;8222;51.462;12.630;2022-09-09T07:44:31;20.60;99.90
16229;DHT22;8222;51.462;12.630;2022-09-09T07:47:01;20.80;99.90
16229;DHT22;8222;51.462;12.630;2022-09-09T07:49:26;20.80;99.90
16229;DHT22;8222;51.462;12.630;2022-09-09T07:51:52;20.90;99.90
16229;DHT22;8222;51.462;12.630;2022-09-09T07:54:19;20.90;99.90
16229;DHT22;8222;51.462;12.630;2022-09-09T07:56:49;21.10;99.90
16229;DHT22;8222;51.462;12.630;2022-09-09T07:59:16;21.10;99.90
16229;DHT22;8222;51.462;12.630;2022-09-09T08:01:48;21.30;99.90
16229;DHT22;8222;51.462;12.630;2022-09-09T08:04:21;21.40;99.90
16229;DHT22;8222;51.462;12.630;2022-09-09T08:06:58;21.70;99.90
16229;DHT22;8222;51.462;12.630;2022-09-09T08:09:25;21.90;99.90
16229;DHT22;8222;51.462;12.630;2022-09-09T08:11:55;22.10;99.90
16229;DHT22;8222;51.462;12.630;2022-09-09T08:14:24;22.10;99.90
16229;DHT22;8222;51.462;12.630;2022-09-09T08:16:50;22.10;99.90
16229;DHT22;8222;51.462;12.630;2022-09-09T08:19:16;22.20;99.90
16229;DHT22;8222;51.462;12.630;2022-09-09T08:21:43;22.40;99.90
16229;DHT22;8222;51.462;12.630;2022-09-09T08:24:11;22.50;99.90
16229;DHT22;8222;51.462;12.630;2022-09-09T08:26:40;22.60;99.90
16229;DHT22;8222;51.462;12.630;2022-09-09T08:29:08;22.70;99.90
16229;DHT22;8222;51.462;12.630;2022-09-09T08:31:56;22.80;99.90
16229;DHT22;8222;51.462;12.630;2022-09-09T08:34:23;22.90;99.90
16229;DHT22;8222;51.462;12.630;2022-09-09T08:36:50;23.00;99.90
16229;DHT22;8222;51.462;12.630;2022-09-09T08:39:18;22.90;99.90
16229;DHT22;8222;51.462;12.630;2022-09-09T08:42:11;23.10;99.90
16229;DHT22;8222;51.462;12.630;2022-09-09T08:45:00;23.10;99.90
16229;DHT22;8222;51.462;12.630;2022-09-09T08:50:36;23.10;99.90
16229;DHT22;8222;51.462;12.630;2022-09-09T08:53:17;23.00;99.90
16229;DHT22;8222;51.462;12.630;2022-09-09T08:55:56;23.00;99.90
16229;DHT22;8222;51.462;12.630;2022-09-09T08:58:28;23.20;99.90
16229;DHT22;8222;51.462;12.630;2022-09-09T09:03:36;23.50;99.90
16229;DHT22;8222;51.462;12.630;2022-09-09T09:11:40;24.20;99.90
16229;DHT22;8222;51.462;12.630;2022-09-09T09:16:51;24.40;99.90
16229;DHT22;8222;51.462;12.630;2022-09-09T09:19:18;24.50;99.90
16229;DHT22;8222;51.462;12.630;2022-09-09T09:21:48;24.50;99.90
16229;DHT22;8222;51.462;12.630;2022-09-09T09:27:14;24.20;99.90
16229;DHT22;8222;51.462;12.630;2022-09-09T09:29:42;24.20;99.90
16229;DHT22;8222;51.462;12.630;2022-09-09T09:32:13;24.20;99.90
16229;DHT22;8222;51.462;12.630;2022-09-09T09:34:41;24.20;99.90
16229;DHT22;8222;51.462;12.630;2022-09-09T09:37:16;24.40;99.90
16229;DHT22;8222;51.462;12.630;2022-09-09T09:39:44;24.50;99.90
16229;DHT22;8222;51.462;12.630;2022-09-09T09:42:12;24.60;99.90
16229;DHT22;8222;51.462;12.630;2022-09-09T09:44:40;24.50;99.90
16229;DHT22;8222;51.462;12.630;2022-09-09T09:49:58;24.70;99.90
16229;DHT22;8222;51.462;12.630;2022-09-09T09:52:31;24.80;99.90
16229;DHT22;8222;51.462;12.630;2022-09-09T09:54:58;24.90;99.90
16229;DHT22;8222;51.462;12.630;2022-09-09T09:57:29;24.90;99.90
16229;DHT22;8222;51.462;12.630;2022-09-09T10:00:17;25.10;99.90
16229;DHT22;8222;51.462;12.630;2022-09-09T10:02:45;25.10;99.90
16229;DHT22;8222;51.462;12.630;2022-09-09T10:08:02;25.40;99.90
16229;DHT22;8222;51.462;12.630;2022-09-09T10:13:46;25.50;99.90
16229;DHT22;8222;51.462;12.630;2022-09-09T10:19:13;25.60;99.90
16229;DHT22;8222;51.462;12.630;2022-09-09T10:38:28;26.30;99.90
16229;DHT22;8222;51.462;12.630;2022-09-09T10:46:34;27.10;99.90
16229;DHT22;8222;51.462;12.630;2022-09-09T10:52:18;27.50;99.90
16229;DHT22;8222;51.462;12.630;2022-09-09T10:55:00;27.80;99.90
16229;DHT22;8222;51.462;12.630;2022-09-09T10:59:57;28.00;99.90
16229;DHT22;8222;51.462;12.630;2022-09-09T11:02:30;27.70;99.90
16229;DHT22;8222;51.462;12.630;2022-09-09T11:10:04;27.30;99.90
16229;DHT22;8222;51.462;12.630;2022-09-09T11:12:36;27.00;99.90
16229;DHT22;8222;51.462;12.630;2022-09-09T11:15:08;27.10;99.90
16229;DHT22;8222;51.462;12.630;2022-09-09T11:17:52;27.00;99.90
16229;DHT22;8222;51.462;12.630;2022-09-09T11:20:20;27.00;99.90
16229;DHT22;8222;51.462;12.630;2022-09-09T11:25:32;26.40;99.90
16229;DHT22;8222;51.462;12.630;2022-09-09T11:36:13;26.70;99.90
16229;DHT22;8222;51.462;12.630;2022-09-09T11:38:51;26.80;99.90
16229;DHT22;8222;51.462;12.630;2022-09-09T11:41:20;27.00;99.90
16229;DHT22;8222;51.462;12.630;2022-09-09T11:43:49;26.80;99.90
16229;DHT22;8222;51.462;12.630;2022-09-09T11:46:22;26.70;99.90
16229;DHT22;8222;51.462;12.630;2022-09-09T11:49:04;26.50;99.90
16229;DHT22;8222;51.462;12.630;2022-09-09T11:51:31;26.50;99.90
16229;DHT22;8222;51.462;12.630;2022-09-09T11:56:53;26.70;99.90
16229;DHT22;8222;51.462;12.630;2022-09-09T11:59:24;26.80;99.90
16229;DHT22;8222;51.462;12.630;2022-09-09T12:02:14;26.70;99.90
16229;DHT22;8222;51.462;12.630;2022-09-09T12:07:55;26.00;99.90
16229;DHT22;8222;51.462;12.630;2022-09-09T12:10:29;26.00;99.90
16229;DHT22;8222;51.462;12.630;2022-09-09T12:13:15;26.10;99.90
16229;DHT22;8222;51.462;12.630;2022-09-09T12:15:49;26.40;99.90
16229;DHT22;8222;51.462;12.630;2022-09-09T12:18:23;26.80;99.90
16229;DHT22;8222;51.462;12.630;2022-09-09T12:21:02;27.10;99.90
16229;DHT22;8222;51.462;12.630;2022-09-09T12:23:40;27.40;99.90
16229;DHT22;8222;51.462;12.630;2022-09-09T12:32:07;27.40;99.90
16229;DHT22;8222;51.462;12.630;2022-09-09T12:35:10;27.10;99.90
16229;DHT22;8222;51.462;12.630;2022-09-09T12:37:37;27.10;99.90
16229;DHT22;8222;51.462;12.630;2022-09-09T12:42:32;27.50;99.90
16229;DHT22;8222;51.462;12.630;2022-09-09T12:45:02;27.60;99.90
16229;DHT22;8222;51.462;12.630;2022-09-09T12:48:04;27.80;99.90
16229;DHT22;8222;51.462;12.630;2022-09-09T12:50:36;27.80;99.90
16229;DHT22;8222;51.462;12.630;2022-09-09T12:53:27;27.80;99.90
16229;DHT22;8222;51.462;12.630;2022-09-09T12:55:56;27.90;99.90
16229;DHT22;8222;51.462;12.630;2022-09-09T12:58:24;27.90;99.90
16229;DHT22;8222;51.462;12.630;2022-09-09T13:00:54;27.50;99.90
16229;DHT22;8222;51.462;12.630;2022-09-09T13:03:22;27.40;99.90
16229;DHT22;8222;51.462;12.630;2022-09-09T13:05:49;27.40;99.90
16229;DHT22;8222;51.462;12.630;2022-09-09T13:08:16;27.40;99.90
16229;DHT22;8222;51.462;12.630;2022-09-09T13:11:04;27.50;99.90
16229;DHT22;8222;51.462;12.630;2022-09-09T13:13:40;27.70;99.90
16229;DHT22;8222;51.462;12.630;2022-09-09T13:16:18;28.10;99.90
16229;DHT22;8222;51.462;12.630;2022-09-09T13:18:44;28.30;99.90
16229;DHT22;8222;51.462;12.630;2022-09-09T13:21:10;28.60;98.00
16229;DHT22;8222;51.462;12.630;2022-09-09T13:23:37;28.40;95.90
16229;DHT22;8222;51.462;12.630;2022-09-09T13:26:05;28.20;97.40
16229;DHT22;8222;51.462;12.630;2022-09-09T13:28:35;27.90;97.00
16229;DHT22;8222;51.462;12.630;2022-09-09T13:31:06;27.80;97.20
16229;DHT22;8222;51.462;12.630;2022-09-09T13:33:44;27.50;98.10
16229;DHT22;8222;51.462;12.630;2022-09-09T13:36:11;27.20;99.90
16229;DHT22;8222;51.462;12.630;2022-09-09T13:38:56;27.00;99.90
16229;DHT22;8222;51.462;12.630;2022-09-09T13:41:28;26.80;99.90
16229;DHT22;8222;51.462;12.630;2022-09-09T13:43:55;26.60;99.90
16229;DHT22;8222;51.462;12.630;2022-09-09T13:46:42;26.40;99.90
16229;DHT22;8222;51.462;12.630;2022-09-09T13:51:41;26.10;99.90
16229;DHT22;8222;51.462;12.630;2022-09-09T13:54:11;26.10;99.90
16229;DHT22;8222;51.462;12.630;2022-09-09T13:56:38;26.10;99.90
16229;DHT22;8222;51.462;12.630;2022-09-09T13:59:06;26.10;99.90
16229;DHT22;8222;51.462;12.630;2022-09-09T14:01:35;26.00;99.90
16229;DHT22;8222;51.462;12.630;2022-09-09T14:04:03;26.10;99.90
16229;DHT22;8222;51.462;12.630;2022-09-09T14:06:30;26.00;99.90
16229;DHT22;8222;51.462;12.630;2022-09-09T14:08:58;25.90;99.90
16229;DHT22;8222;51.462;12.630;2022-09-09T14:11:24;25.70;99.90
16229;DHT22;8222;51.462;12.630;2022-09-09T14:13:50;25.70;99.90
16229;DHT22;8222;51.462;12.630;2022-09-09T14:16:17;25.60;99.90
16229;DHT22;8222;51.462;12.630;2022-09-09T14:18:45;25.50;99.90
16229;DHT22;8222;51.462;12.630;2022-09-09T14:21:11;25.50;99.90
16229;DHT22;8222;51.462;12.630;2022-09-09T14:23:37;25.50;99.90
16229;DHT22;8222;51.462;12.630;2022-09-09T14:26:05;25.40;99.90
16229;DHT22;8222;51.462;12.630;2022-09-09T14:28:31;25.20;99.90
16229;DHT22;8222;51.462;12.630;2022-09-09T14:31:02;25.30;99.90
16229;DHT22;8222;51.462;12.630;2022-09-09T14:33:29;25.20;99.90
16229;DHT22;8222;51.462;12.630;2022-09-09T14:35:59;25.30;99.90
16229;DHT22;8222;51.462;12.630;2022-09-09T14:38:28;24.90;99.90
16229;DHT22;8222;51.462;12.630;2022-09-09T14:40:53;24.40;99.90
16229;DHT22;8222;51.462;12.630;2022-09-09T14:43:19;24.10;99.90
16229;DHT22;8222;51.462;12.630;2022-09-09T14:45:46;23.90;99.90
16229;DHT22;8222;51.462;12.630;2022-09-09T14:48:14;23.60;99.90
16229;DHT22;8222;51.462;12.630;2022-09-09T14:50:40;23.50;99.90
16229;DHT22;8222;51.462;12.630;2022-09-09T14:53:07;23.50;99.90
16229;DHT22;8222;51.462;12.630;2022-09-09T14:55:34;23.60;99.90
16229;DHT22;8222;51.462;12.630;2022-09-09T14:58:00;23.80;99.90
16229;DHT22;8222;51.462;12.630;2022-09-09T15:00:26;23.80;99.90
16229;DHT22;8222;51.462;12.630;2022-09-09T15:02:54;23.90;99.90
16229;DHT22;8222;51.462;12.630;2022-09-09T15:05:20;24.00;99.90
16229;DHT22;8222;51.462;12.630;2022-09-09T15:07:46;24.20;99.90
16229;DHT22;8222;51.462;12.630;2022-09-09T15:10:14;24.10;99.90
16229;DHT22;8222;51.462;12.630;2022-09-09T15:12:40;24.20;99.90
16229;DHT22;8222;51.462;12.630;2022-09-09T15:15:07;24.20;99.90
16229;DHT22;8222;51.462;12.630;2022-09-09T15:17:33;24.20;99.90
16229;DHT22;8222;51.462;12.630;2022-09-09T15:20:03;24.50;99.90
16229;DHT22;8222;51.462;12.630;2022-09-09T15:22:31;24.70;99.90
16229;DHT22;8222;51.462;12.630;2022-09-09T15:24:57;25.10;99.90
16229;DHT22;8222;51.462;12.630;2022-09-09T15:27:22;25.50;99.90
16229;DHT22;8222;51.462;12.630;2022-09-09T15:29:49;25.90;99.90
16229;DHT22;8222;51.462;12.630;2022-09-09T15:32:15;26.10;99.90
16229;DHT22;8222;51.462;12.630;2022-09-09T15:34:43;26.20;99.90
16229;DHT22;8222;51.462;12.630;2022-09-09T15:37:12;26.30;99.90
16229;DHT22;8222;51.462;12.630;2022-09-09T15:39:40;26.40;99.90
16229;DHT22;8222;51.462;12.630;2022-09-09T15:42:06;26.20;99.90
16229;DHT22;8222;51.462;12.630;2022-09-09T15:44:44;25.80;99.90
16229;DHT22;8222;51.462;12.630;2022-09-09T15:47:11;25.70;99.90
16229;DHT22;8222;51.462;12.630;2022-09-09T15:49:38;25.80;99.90
16229;DHT22;8222;51.462;12.630;2022-09-09T15:52:04;25.90;99.90
16229;DHT22;8222;51.462;12.630;2022-09-09T15:54:34;25.90;99.90
16229;DHT22;8222;51.462;12.630;2022-09-09T15:57:02;25.90;99.90
16229;DHT22;8222;51.462;12.630;2022-09-09T15:59:30;25.90;99.90
16229;DHT22;8222;51.462;12.630;2022-09-09T16:01:57;25.80;99.90
16229;DHT22;8222;51.462;12.630;2022-09-09T16:04:25;25.50;99.90
16229;DHT22;8222;51.462;12.630;2022-09-09T16:06:56;25.50;99.90
16229;DHT22;8222;51.462;12.630;2022-09-09T16:09:24;25.50;99.90
16229;DHT22;8222;51.462;12.630;2022-09-09T16:11:50;25.70;99.90
16229;DHT22;8222;51.462;12.630;2022-09-09T16:14:18;25.60;99.90
16229;DHT22;8222;51.462;12.630;2022-09-09T16:16:46;25.50;99.90
16229;DHT22;8222;51.462;12.630;2022-09-09T16:19:12;25.20;99.90
16229;DHT22;8222;51.462;12.630;2022-09-09T16:21:42;25.00;99.90
16229;DHT22;8222;51.462;12.630;2022-09-09T16:24:11;24.80;99.90
16229;DHT22;8222;51.462;12.630;2022-09-09T16:26:39;24.60;99.90
16229;DHT22;8222;51.462;12.630;2022-09-09T16:29:05;24.40;99.90
16229;DHT22;8222;51.462;12.630;2022-09-09T16:31:32;24.20;99.90
16229;DHT22;8222;51.462;12.630;2022-09-09T16:33:58;24.00;99.90
16229;DHT22;8222;51.462;12.630;2022-09-09T16:36:27;23.80;99.90
16229;DHT22;8222;51.462;12.630;2022-09-09T16:39:03;23.60;99.90
16229;DHT22;8222;51.462;12.630;2022-09-09T16:41:30;23.50;99.90
16229;DHT22;8222;51.462;12.630;2022-09-09T16:43:57;23.40;99.90
16229;DHT22;8222;51.462;12.630;2022-09-09T16:46:24;23.30;99.90
16229;DHT22;8222;51.462;12.630;2022-09-09T16:48:52;23.20;99.90
16229;DHT22;8222;51.462;12.630;2022-09-09T16:51:21;23.00;99.90
16229;DHT22;8222;51.462;12.630;2022-09-09T16:53:53;22.90;99.90
16229;DHT22;8222;51.462;12.630;2022-09-09T16:56:22;22.80;99.90
16229;DHT22;8222;51.462;12.630;2022-09-09T16:58:53;22.70;99.90
16229;DHT22;8222;51.462;12.630;2022-09-09T17:01:24;22.60;99.90
16229;DHT22;8222;51.462;12.630;2022-09-09T17:03:54;22.50;99.90
16229;DHT22;8222;51.462;12.630;2022-09-09T17:06:23;22.30;99.90
16229;DHT22;8222;51.462;12.630;2022-09-09T17:09:04;22.20;99.90
16229;DHT22;8222;51.462;12.630;2022-09-09T17:11:32;22.10;99.90
16229;DHT22;8222;51.462;12.630;2022-09-09T17:13:58;22.10;99.90
16229;DHT22;8222;51.462;12.630;2022-09-09T17:16:28;22.00;99.90
16229;DHT22;8222;51.462;12.630;2022-09-09T17:18:55;21.90;99.90
16229;DHT22;8222;51.462;12.630;2022-09-09T17:21:23;21.80;99.90
16229;DHT22;8222;51.462;12.630;2022-09-09T17:23:51;21.70;99.90
16229;DHT22;8222;51.462;12.630;2022-09-09T17:26:22;21.50;99.90
16229;DHT22;8222;51.462;12.630;2022-09-09T17:28:50;21.40;99.90
16229;DHT22;8222;51.462;12.630;2022-09-09T17:31:17;21.20;99.90
16229;DHT22;8222;51.462;12.630;2022-09-09T17:33:46;21.20;99.90
16229;DHT22;8222;51.462;12.630;2022-09-09T17:36:18;21.10;99.90
16229;DHT22;8222;51.462;12.630;2022-09-09T17:38:44;21.00;99.90
16229;DHT22;8222;51.462;12.630;2022-09-09T17:41:12;20.90;99.90
16229;DHT22;8222;51.462;12.630;2022-09-09T17:43:38;20.80;99.90
16229;DHT22;8222;51.462;12.630;2022-09-09T17:46:06;20.80;99.90
16229;DHT22;8222;51.462;12.630;2022-09-09T17:48:32;20.70;99.90
16229;DHT22;8222;51.462;12.630;2022-09-09T17:51:00;20.70;99.90
16229;DHT22;8222;51.462;12.630;2022-09-09T17:53:26;20.70;99.90
16229;DHT22;8222;51.462;12.630;2022-09-09T17:55:54;20.60;99.90
16229;DHT22;8222;51.462;12.630;2022-09-09T17:58:20;20.50;99.90
16229;DHT22;8222;51.462;12.630;2022-09-09T18:00:46;20.40;99.90
16229;DHT22;8222;51.462;12.630;2022-09-09T18:03:12;20.30;99.90